createdAt,value
2022-08-26T00:02:16.761Z,40.60
2022-08-26T00:04:47.618Z,40.48
2022-08-26T00:07:15.097Z,40.19
2022-08-26T00:09:42.150Z,40.47
2022-08-26T00:12:14.909Z,40.44
2022-08-26T00:14:42.141Z,40.82
2022-08-26T00:17:09.853Z,40.93
2022-08-26T00:19:39.818Z,45.84
2022-08-26T00:22:07.709Z,42.81
2022-08-26T00:24:35.045Z,47.88
2022-08-26T00:27:02.057Z,43.76
2022-08-26T00:29:29.343Z,43.09
2022-08-26T00:31:59.345Z,42.71
2022-08-26T00:34:26.668Z,49.65
2022-08-26T00:36:54.705Z,48.03
2022-08-26T00:39:21.821Z,44.12
2022-08-26T00:41:50.705Z,43.40
2022-08-26T00:44:18.567Z,42.80
2022-08-26T00:46:51.712Z,42.62
2022-08-26T00:49:30.135Z,42.55
2022-08-26T00:52:03.437Z,43.22
2022-08-26T00:54:36.372Z,42.42
2022-08-26T00:57:16.534Z,42.48
2022-08-26T00:59:47.830Z,42.64
2022-08-26T01:02:20.929Z,42.63
2022-08-26T01:05:03.433Z,42.76
2022-08-26T01:07:32.198Z,42.60
2022-08-26T01:10:05.512Z,42.81
2022-08-26T01:12:40.258Z,43.06
2022-08-26T01:15:10.497Z,42.61
2022-08-26T01:17:41.431Z,42.83
2022-08-26T01:20:27.531Z,46.48
2022-08-26T01:23:08.498Z,52.53
2022-08-26T01:25:41.130Z,52.51
2022-08-26T01:28:25.424Z,46.58
2022-08-26T01:30:55.263Z,45.98
2022-08-26T01:33:30.765Z,45.50
2022-08-26T01:36:08.665Z,45.29
2022-08-26T01:38:35.782Z,45.70
2022-08-26T01:41:03.539Z,46.16
2022-08-26T01:43:49.701Z,46.56
2022-08-26T01:46:18.816Z,46.80
2022-08-26T01:48:47.028Z,46.53
2022-08-26T01:51:18.057Z,46.63
2022-08-26T01:53:46.107Z,46.55
2022-08-26T01:56:15.657Z,53.18
2022-08-26T01:58:48.855Z,48.83
2022-08-26T02:01:16.778Z,49.05
2022-08-26T02:03:57.093Z,50.00
2022-08-26T02:06:25.071Z,49.82
2022-08-26T02:08:55.744Z,48.83
2022-08-26T02:11:23.342Z,47.31
2022-08-26T02:13:55.829Z,47.96
2022-08-26T02:16:26.400Z,46.96
2022-08-26T02:18:55.759Z,50.18
2022-08-26T02:21:24.952Z,50.25
2022-08-26T02:23:52.599Z,47.96
2022-08-26T02:26:27.082Z,47.68
2022-08-26T02:29:09.612Z,48.49
2022-08-26T02:31:36.837Z,46.93
2022-08-26T02:34:14.219Z,46.50
2022-08-26T02:36:43.217Z,47.43
2022-08-26T02:39:10.312Z,46.10
2022-08-26T02:41:45.107Z,46.40
2022-08-26T02:44:15.612Z,46.45
2022-08-26T02:46:46.937Z,47.72
2022-08-26T02:49:18.103Z,50.08
2022-08-26T02:51:46.938Z,47.15
2022-08-26T02:54:14.193Z,47.59
2022-08-26T02:56:44.334Z,50.02
2022-08-26T02:59:15.633Z,48.06
2022-08-26T03:01:42.945Z,47.51
2022-08-26T03:04:12.651Z,51.67
2022-08-26T03:06:42.416Z,47.55
2022-08-26T03:09:10.212Z,47.40
2022-08-26T03:11:47.391Z,50.29
2022-08-26T03:14:17.622Z,47.90
2022-08-26T03:16:44.836Z,47.23
2022-08-26T03:19:18.583Z,51.24
2022-08-26T03:21:47.385Z,49.61
2022-08-26T03:24:15.600Z,51.77
2022-08-26T03:26:52.438Z,51.24
2022-08-26T03:29:40.432Z,51.99
2022-08-26T03:32:08.357Z,52.80
2022-08-26T03:34:36.304Z,49.77
2022-08-26T03:37:05.893Z,48.93
2022-08-26T03:39:32.980Z,47.74
2022-08-26T03:42:00.545Z,47.59
2022-08-26T03:44:28.027Z,47.59
2022-08-26T03:46:55.173Z,47.40
2022-08-26T03:49:24.661Z,47.32
2022-08-26T03:51:58.587Z,47.51
2022-08-26T03:54:28.740Z,47.63
2022-08-26T03:56:56.348Z,47.32
2022-08-26T03:59:24.025Z,47.69
2022-08-26T04:01:51.921Z,48.33
2022-08-26T04:04:22.824Z,47.50
2022-08-26T04:06:58.618Z,47.40
2022-08-26T04:09:27.137Z,47.75
2022-08-26T04:11:55.736Z,47.76
2022-08-26T04:14:26.243Z,47.71
2022-08-26T04:16:55.472Z,47.82
2022-08-26T04:19:23.857Z,47.82
2022-08-26T04:21:55.702Z,48.12
2022-08-26T04:24:27.987Z,48.71
2022-08-26T04:26:56.831Z,48.89
2022-08-26T04:29:26.773Z,48.15
2022-08-26T04:31:56.010Z,48.05
2022-08-26T04:34:28.361Z,48.24
2022-08-26T04:36:56.394Z,48.56
2022-08-26T04:39:23.753Z,48.89
2022-08-26T04:41:55.323Z,48.83
2022-08-26T04:44:22.861Z,52.41
2022-08-26T04:46:51.395Z,50.76
2022-08-26T04:49:19.273Z,48.63
2022-08-26T04:51:47.541Z,48.90
2022-08-26T04:54:16.286Z,48.39
2022-08-26T04:56:45.655Z,48.76
2022-08-26T04:59:18.139Z,49.01
2022-08-26T05:01:49.410Z,51.48
2022-08-26T05:04:19.696Z,59.19
2022-08-26T05:06:48.558Z,62.83
2022-08-26T05:09:18.643Z,57.48
2022-08-26T05:11:48.562Z,53.70
2022-08-26T05:14:21.268Z,51.97
2022-08-26T05:16:50.121Z,50.85
2022-08-26T05:19:19.217Z,50.55
2022-08-26T05:21:48.689Z,50.66
2022-08-26T05:24:18.541Z,51.13
2022-08-26T05:26:48.312Z,50.84
2022-08-26T05:29:15.863Z,50.37
2022-08-26T05:31:44.324Z,50.60
2022-08-26T05:34:11.499Z,50.08
2022-08-26T05:36:39.127Z,49.91
2022-08-26T05:39:07.508Z,51.48
2022-08-26T05:41:40.175Z,50.30
2022-08-26T05:44:10.444Z,54.27
2022-08-26T05:46:39.110Z,53.67
2022-08-26T05:49:12.599Z,53.46
2022-08-26T05:51:45.444Z,54.99
2022-08-26T05:54:14.222Z,56.96
2022-08-26T05:56:51.597Z,52.68
2022-08-26T05:59:24.454Z,51.92
2022-08-26T06:01:56.153Z,51.38
2022-08-26T06:04:29.509Z,53.44
2022-08-26T06:06:59.990Z,50.99
2022-08-26T06:09:27.457Z,54.46
2022-08-26T06:11:54.697Z,53.34
2022-08-26T06:14:29.105Z,53.12
2022-08-26T06:16:58.393Z,52.01
2022-08-26T06:19:32.667Z,51.41
2022-08-26T06:22:23.405Z,51.34
2022-08-26T06:25:09.925Z,51.86
2022-08-26T06:27:37.190Z,55.33
2022-08-26T06:30:04.866Z,54.84
2022-08-26T06:32:31.963Z,51.82
2022-08-26T06:34:59.250Z,51.61
2022-08-26T06:37:26.321Z,51.38
2022-08-26T06:39:53.388Z,51.21
2022-08-26T06:42:20.440Z,49.95
2022-08-26T06:44:47.792Z,49.68
2022-08-26T06:47:15.338Z,53.13
2022-08-26T06:49:42.468Z,50.92
2022-08-26T06:52:11.504Z,54.37
2022-08-26T06:54:44.287Z,55.24
2022-08-26T06:57:12.893Z,53.98
2022-08-26T06:59:41.390Z,53.09
2022-08-26T07:02:08.681Z,51.96
2022-08-26T07:04:40.477Z,49.86
2022-08-26T07:07:07.537Z,49.46
2022-08-26T07:09:37.621Z,51.59
2022-08-26T07:12:06.894Z,49.61
2022-08-26T07:14:35.355Z,48.65
2022-08-26T07:17:03.345Z,47.60
2022-08-26T07:19:31.796Z,47.23
2022-08-26T07:22:04.394Z,47.72
2022-08-26T07:24:33.641Z,48.60
2022-08-26T07:27:05.600Z,48.67
2022-08-26T07:29:33.568Z,49.36
2022-08-26T07:32:01.546Z,48.64
2022-08-26T07:34:28.860Z,47.83
2022-08-26T07:36:57.229Z,46.31
2022-08-26T07:39:27.242Z,47.27
2022-08-26T07:41:54.392Z,48.25
2022-08-26T07:44:21.523Z,46.79
2022-08-26T07:46:52.435Z,45.11
2022-08-26T07:49:24.818Z,44.48
2022-08-26T07:51:53.564Z,44.68
2022-08-26T07:54:21.252Z,44.01
2022-08-26T07:56:56.018Z,45.53
2022-08-26T07:59:23.704Z,44.97
2022-08-26T08:01:51.203Z,45.07
2022-08-26T08:04:22.985Z,45.46
2022-08-26T08:06:54.993Z,43.17
2022-08-26T08:09:23.638Z,42.39
2022-08-26T08:11:52.859Z,43.06
2022-08-26T08:14:22.049Z,43.09
2022-08-26T08:16:51.272Z,42.56
2022-08-26T08:19:36.722Z,43.48
2022-08-26T08:22:17.768Z,43.29
2022-08-26T08:24:49.760Z,41.21
2022-08-26T08:27:24.253Z,43.19
2022-08-26T08:29:57.660Z,42.26
2022-08-26T08:32:24.854Z,40.52
2022-08-26T08:34:53.118Z,38.17
2022-08-26T08:37:20.654Z,40.36
2022-08-26T08:39:49.030Z,38.90
2022-08-26T08:42:22.012Z,41.23
2022-08-26T08:44:54.671Z,39.24
2022-08-26T08:47:35.394Z,41.90
2022-08-26T08:50:28.117Z,43.32
2022-08-26T08:53:38.082Z,44.20
2022-08-26T08:56:32.506Z,40.63
2022-08-26T08:58:59.746Z,41.11
2022-08-26T09:01:48.360Z,40.94
2022-08-26T09:04:37.824Z,39.73
2022-08-26T09:07:09.136Z,40.39
2022-08-26T09:09:46.288Z,38.65
2022-08-26T09:12:34.404Z,38.98
2022-08-26T09:15:33.440Z,40.94
2022-08-26T09:18:12.342Z,38.25
2022-08-26T09:21:06.023Z,39.18
2022-08-26T09:23:35.924Z,36.21
2022-08-26T09:26:33.158Z,38.89
2022-08-26T09:29:10.727Z,37.36
2022-08-26T09:31:43.641Z,38.10
2022-08-26T09:34:37.780Z,38.63
2022-08-26T09:37:05.340Z,35.53
2022-08-26T09:39:38.712Z,35.78
2022-08-26T09:42:25.626Z,38.74
2022-08-26T09:44:57.440Z,35.01
2022-08-26T09:47:30.442Z,36.71
2022-08-26T09:50:29.217Z,34.73
2022-08-26T09:53:28.521Z,33.77
2022-08-26T09:56:17.771Z,34.88
2022-08-26T09:58:48.073Z,35.27
2022-08-26T10:01:46.322Z,34.37
2022-08-26T10:04:20.969Z,34.65
2022-08-26T10:07:03.339Z,36.56
2022-08-26T10:09:34.808Z,36.25
2022-08-26T10:12:10.790Z,34.76
2022-08-26T10:14:53.881Z,37.46
2022-08-26T10:17:46.348Z,36.37
2022-08-26T10:20:27.743Z,31.15
2022-08-26T10:23:07.816Z,28.87
2022-08-26T10:25:58.990Z,32.32
2022-08-26T10:28:44.420Z,29.27
2022-08-26T10:31:28.354Z,28.46
2022-08-26T10:34:00.113Z,28.55
2022-08-26T10:39:45.994Z,27.04
2022-08-26T10:42:33.385Z,30.99
2022-08-26T10:45:08.014Z,27.99
2022-08-26T10:47:54.419Z,31.67
2022-08-26T10:50:25.379Z,33.42
2022-08-26T10:53:06.024Z,28.51
2022-08-26T10:56:02.068Z,27.67
2022-08-26T10:58:53.292Z,31.85
2022-08-26T11:01:46.964Z,27.37
2022-08-26T11:04:31.478Z,30.17
2022-08-26T11:07:35.638Z,30.42
2022-08-26T11:10:07.392Z,28.75
2022-08-26T11:12:37.598Z,26.34
2022-08-26T11:15:11.813Z,29.38
2022-08-26T11:17:46.668Z,28.70
2022-08-26T11:20:22.775Z,26.33
2022-08-26T11:22:53.049Z,23.80
2022-08-26T11:25:26.462Z,25.06
2022-08-26T11:28:02.637Z,26.85
2022-08-26T11:30:37.719Z,26.59
2022-08-26T11:33:06.387Z,31.31
2022-08-26T11:35:37.499Z,28.72
2022-08-26T11:38:20.397Z,31.88
2022-08-26T11:41:00.294Z,29.83
2022-08-26T11:43:31.997Z,26.58
2022-08-26T11:46:06.164Z,24.11
2022-08-26T11:48:40.012Z,28.97
2022-08-26T11:51:11.737Z,25.40
2022-08-26T11:53:47.063Z,25.24
2022-08-26T11:56:33.473Z,25.02
2022-08-26T11:59:04.519Z,25.04
2022-08-26T12:01:36.202Z,27.32
2022-08-26T12:04:08.841Z,28.71
2022-08-26T12:06:45.227Z,26.75
2022-08-26T12:09:54.675Z,25.38
2022-08-26T12:12:25.352Z,27.46
2022-08-26T12:15:16.555Z,25.57
2022-08-26T12:17:45.378Z,22.89
2022-08-26T12:20:30.404Z,27.47
2022-08-26T12:23:00.396Z,24.55
2022-08-26T12:25:28.324Z,26.30
2022-08-26T12:28:06.540Z,22.96
2022-08-26T12:30:39.020Z,20.32
2022-08-26T12:33:22.457Z,22.29
2022-08-26T12:35:56.202Z,21.91
2022-08-26T12:38:26.354Z,26.46
2022-08-26T12:40:54.780Z,22.85
2022-08-26T12:43:44.585Z,21.80
2022-08-26T12:46:30.022Z,22.63
2022-08-26T12:49:02.275Z,22.36
2022-08-26T12:51:32.979Z,22.20
2022-08-26T12:54:00.744Z,22.58
2022-08-26T12:56:38.019Z,20.89
2022-08-26T12:59:22.412Z,20.28
2022-08-26T13:01:49.885Z,19.08
2022-08-26T13:04:35.893Z,19.27
2022-08-26T13:07:13.838Z,22.34
2022-08-26T13:09:40.825Z,22.66
2022-08-26T13:12:11.819Z,22.25
2022-08-26T13:14:38.899Z,22.64
2022-08-26T13:17:05.939Z,21.41
2022-08-26T13:19:35.224Z,20.09
2022-08-26T13:22:02.380Z,21.86
2022-08-26T13:24:34.771Z,23.37
2022-08-26T13:27:03.730Z,21.91
2022-08-26T13:29:30.953Z,22.76
2022-08-26T13:31:58.891Z,22.52
2022-08-26T13:34:26.435Z,23.02
2022-08-26T13:36:58.749Z,23.50
2022-08-26T13:39:26.902Z,23.85
2022-08-26T13:41:54.741Z,24.15
2022-08-26T13:44:22.067Z,23.56
2022-08-26T13:46:49.504Z,24.39
2022-08-26T13:49:16.666Z,24.82
2022-08-26T13:51:46.258Z,25.17
2022-08-26T13:54:13.251Z,25.13
2022-08-26T13:56:40.554Z,25.20
2022-08-26T13:59:10.280Z,26.09
2022-08-26T14:01:38.571Z,26.76
2022-08-26T14:04:09.013Z,26.31
2022-08-26T14:06:36.586Z,25.00
2022-08-26T14:09:04.513Z,25.50
2022-08-26T14:11:50.611Z,25.96
2022-08-26T14:14:21.682Z,25.23
2022-08-26T14:16:59.032Z,25.43
2022-08-26T14:19:30.722Z,25.14
2022-08-26T14:22:01.720Z,25.85
2022-08-26T14:24:34.982Z,26.40
2022-08-26T14:27:02.260Z,26.07
2022-08-26T14:29:31.929Z,26.77
2022-08-26T14:32:07.875Z,27.44
2022-08-26T14:34:35.064Z,28.16
2022-08-26T14:37:08.141Z,29.19
2022-08-26T14:39:38.508Z,29.18
2022-08-26T14:42:06.694Z,29.75
2022-08-26T14:44:35.198Z,29.37
2022-08-26T14:47:04.910Z,30.07
2022-08-26T14:49:34.512Z,28.96
2022-08-26T14:52:01.723Z,29.32
2022-08-26T14:54:30.857Z,29.00
2022-08-26T14:57:05.142Z,30.54
2022-08-26T14:59:36.548Z,30.00
2022-08-26T15:02:07.752Z,29.36
2022-08-26T15:04:37.917Z,28.30
2022-08-26T15:07:09.412Z,28.93
2022-08-26T15:09:40.162Z,30.74
2022-08-26T15:12:10.651Z,30.19
2022-08-26T15:14:40.486Z,31.39
2022-08-26T15:17:07.882Z,30.25
2022-08-26T15:19:35.030Z,28.83
2022-08-26T15:22:05.918Z,28.75
2022-08-26T15:24:33.025Z,29.18
2022-08-26T15:27:00.221Z,27.34
2022-08-26T15:29:27.427Z,29.52
2022-08-26T15:31:57.714Z,29.35
2022-08-26T15:34:25.292Z,31.15
2022-08-26T15:36:53.139Z,29.95
2022-08-26T15:39:23.917Z,29.78
2022-08-26T15:41:56.418Z,31.46
2022-08-26T15:44:26.921Z,29.77
2022-08-26T15:46:58.374Z,29.92
2022-08-26T15:49:36.066Z,31.06
2022-08-26T15:52:11.022Z,31.04
2022-08-26T15:54:41.000Z,31.75
2022-08-26T15:57:10.778Z,31.43
2022-08-26T15:59:38.803Z,30.28
2022-08-26T16:02:06.822Z,31.30
2022-08-26T16:04:37.005Z,31.53
2022-08-26T16:07:13.000Z,32.93
2022-08-26T16:09:40.159Z,32.48
2022-08-26T16:12:07.529Z,33.29
2022-08-26T16:14:34.868Z,35.73
2022-08-26T16:17:01.960Z,35.88
2022-08-26T16:19:29.146Z,35.43
2022-08-26T16:21:58.760Z,35.44
2022-08-26T16:24:30.207Z,34.65
2022-08-26T16:26:59.947Z,37.33
2022-08-26T16:29:32.226Z,39.28
2022-08-26T16:31:59.405Z,38.21
2022-08-26T16:34:28.844Z,37.89
2022-08-26T16:36:56.005Z,38.77
2022-08-26T16:39:25.667Z,40.98
2022-08-26T16:41:52.973Z,42.22
2022-08-26T16:44:23.259Z,41.69
2022-08-26T16:47:00.287Z,40.96
2022-08-26T16:49:30.498Z,40.13
2022-08-26T16:52:05.656Z,40.58
2022-08-26T16:54:35.383Z,40.06
2022-08-26T16:57:08.320Z,41.32
2022-08-26T16:59:37.973Z,41.62
2022-08-26T17:02:06.218Z,41.38
2022-08-26T17:04:35.305Z,41.11
2022-08-26T17:07:08.853Z,40.82
2022-08-26T17:09:37.850Z,39.76
2022-08-26T17:12:11.843Z,39.81
2022-08-26T17:14:39.017Z,39.20
2022-08-26T17:17:09.013Z,39.48
2022-08-26T17:19:46.943Z,39.77
2022-08-26T17:22:15.337Z,41.10
2022-08-26T17:24:42.607Z,39.86
2022-08-26T17:27:13.107Z,40.96
2022-08-26T17:29:47.944Z,40.80
2022-08-26T17:32:18.147Z,42.21
2022-08-26T17:34:45.268Z,41.65
2022-08-26T17:37:12.418Z,42.68
2022-08-26T17:39:44.245Z,41.32
2022-08-26T17:42:12.164Z,42.97
2022-08-26T17:44:39.817Z,43.58
2022-08-26T17:47:07.492Z,42.30
2022-08-26T17:49:37.178Z,43.32
2022-08-26T17:52:07.481Z,42.99
2022-08-26T17:54:39.124Z,43.00
2022-08-26T17:57:06.263Z,46.66
2022-08-26T17:59:39.086Z,43.05
2022-08-26T18:02:08.366Z,46.33
2022-08-26T18:04:35.566Z,45.62
2022-08-26T18:07:02.684Z,47.33
2022-08-26T18:09:31.852Z,45.74
2022-08-26T18:12:03.070Z,47.33
2022-08-26T18:14:32.073Z,47.92
2022-08-26T18:17:01.559Z,46.28
2022-08-26T18:19:31.147Z,43.49
2022-08-26T18:22:04.379Z,44.78
2022-08-26T18:24:58.809Z,48.41
2022-08-26T18:27:26.956Z,47.69
2022-08-26T18:29:56.761Z,47.73
2022-08-26T18:32:29.072Z,45.18
2022-08-26T18:35:01.794Z,44.58
2022-08-26T18:37:46.161Z,46.76
2022-08-26T18:40:15.313Z,45.35
2022-08-26T18:42:53.922Z,46.83
2022-08-26T18:45:21.520Z,45.30
2022-08-26T18:47:48.897Z,44.34
2022-08-26T18:50:21.556Z,44.74
2022-08-26T18:52:54.145Z,46.23
2022-08-26T18:55:26.920Z,43.42
2022-08-26T18:57:56.586Z,45.87
2022-08-26T19:00:32.005Z,43.72
2022-08-26T19:02:59.360Z,43.53
2022-08-26T19:05:30.142Z,45.50
2022-08-26T19:08:03.052Z,45.86
2022-08-26T19:10:32.994Z,46.65
2022-08-26T19:13:18.715Z,48.85
2022-08-26T19:15:51.677Z,47.29
2022-08-26T19:18:29.463Z,47.29
2022-08-26T19:20:59.788Z,48.47
2022-08-26T19:23:32.066Z,46.77
2022-08-26T19:26:08.014Z,46.83
2022-08-26T19:28:38.732Z,47.11
2022-08-26T19:31:13.138Z,48.06
2022-08-26T19:33:46.356Z,47.55
2022-08-26T19:36:25.132Z,49.94
2022-08-26T19:39:05.392Z,48.71
2022-08-26T19:41:40.512Z,49.00
2022-08-26T19:44:36.402Z,49.28
2022-08-26T19:47:08.017Z,49.10
2022-08-26T19:49:42.341Z,51.75
2022-08-26T19:52:17.643Z,51.46
2022-08-26T19:54:50.137Z,50.67
2022-08-26T19:57:21.569Z,50.77
2022-08-26T19:59:48.906Z,49.42
2022-08-26T20:02:16.558Z,50.32
2022-08-26T20:04:47.189Z,49.21
2022-08-26T20:07:20.011Z,50.41
2022-08-26T20:09:51.122Z,49.64
2022-08-26T20:12:24.157Z,53.01
2022-08-26T20:14:56.587Z,54.03
2022-08-26T20:17:30.119Z,53.58
2022-08-26T20:20:32.773Z,53.04
2022-08-26T20:23:07.767Z,52.58
2022-08-26T20:25:40.106Z,52.26
2022-08-26T20:28:13.355Z,51.05
2022-08-26T20:30:52.116Z,51.74
2022-08-26T20:33:48.016Z,51.65
2022-08-26T20:36:21.384Z,51.30
2022-08-26T20:38:53.537Z,52.06
2022-08-26T20:41:25.729Z,51.46
2022-08-26T20:43:58.193Z,52.16
2022-08-26T20:46:28.142Z,53.96
2022-08-26T20:48:58.228Z,56.63
2022-08-26T20:51:28.501Z,54.64
2022-08-26T20:53:56.063Z,51.68
2022-08-26T20:56:28.676Z,51.19
2022-08-26T20:59:03.140Z,51.30
2022-08-26T21:01:35.069Z,52.92
2022-08-26T21:04:07.633Z,52.35
2022-08-26T21:06:42.317Z,56.93
2022-08-26T21:09:23.095Z,57.09
2022-08-26T21:11:51.452Z,59.89
2022-08-26T21:14:19.354Z,59.67
2022-08-26T21:16:47.877Z,60.84
2022-08-26T21:19:19.180Z,62.15
2022-08-26T21:21:48.425Z,66.25
2022-08-26T21:24:15.864Z,67.73
2022-08-26T21:26:42.985Z,69.51
2022-08-26T21:29:10.642Z,74.54
2022-08-26T21:31:44.889Z,75.98
2022-08-26T21:34:16.213Z,75.43
2022-08-26T21:36:43.572Z,75.12
2022-08-26T21:39:12.184Z,75.16
2022-08-26T21:41:41.498Z,72.57
2022-08-26T21:44:11.684Z,70.15
2022-08-26T21:46:39.708Z,68.20
2022-08-26T21:49:09.625Z,67.56
2022-08-26T21:51:39.890Z,67.38
2022-08-26T21:54:11.388Z,69.88
2022-08-26T21:56:44.371Z,72.61
2022-08-26T21:59:21.609Z,71.97
2022-08-26T22:02:11.790Z,73.01
2022-08-26T22:04:42.874Z,71.73
2022-08-26T22:07:16.227Z,72.98
2022-08-26T22:09:44.458Z,72.33
2022-08-26T22:12:14.670Z,72.30
2022-08-26T22:14:41.831Z,70.58
2022-08-26T22:17:10.624Z,73.21
2022-08-26T22:19:43.346Z,72.08
2022-08-26T22:22:13.420Z,69.41
2022-08-26T22:24:40.723Z,67.94
2022-08-26T22:27:08.059Z,68.19
2022-08-26T22:29:36.805Z,73.07
2022-08-26T22:32:05.005Z,69.65
2022-08-26T22:34:32.497Z,71.00
2022-08-26T22:37:07.382Z,73.03
2022-08-26T22:39:36.455Z,71.10
2022-08-26T22:42:06.595Z,70.93
2022-08-26T22:44:39.766Z,69.61
2022-08-26T22:47:15.632Z,71.49
2022-08-26T22:49:42.808Z,69.65
2022-08-26T22:52:12.702Z,70.86
2022-08-26T22:54:43.393Z,69.00
2022-08-26T22:57:11.390Z,68.39
2022-08-26T22:59:41.114Z,70.60
2022-08-26T23:02:09.628Z,68.59
2022-08-26T23:04:42.938Z,70.51
2022-08-26T23:07:13.030Z,68.79
2022-08-26T23:09:45.435Z,67.63
2022-08-26T23:12:14.206Z,71.02
2022-08-26T23:14:44.115Z,71.06
2022-08-26T23:17:15.509Z,71.45
2022-08-26T23:19:45.218Z,70.80
2022-08-26T23:22:13.354Z,69.47
2022-08-26T23:24:41.970Z,71.38
2022-08-26T23:27:12.703Z,72.70
2022-08-26T23:29:40.053Z,68.86
2022-08-26T23:32:08.857Z,68.85
2022-08-26T23:34:54.285Z,68.95
2022-08-26T23:37:25.131Z,68.99
2022-08-26T23:40:02.592Z,70.34
2022-08-26T23:42:40.673Z,70.61
2022-08-26T23:45:12.392Z,71.78
2022-08-26T23:47:43.460Z,73.26
2022-08-26T23:50:11.728Z,72.77
2022-08-26T23:52:57.275Z,71.64
2022-08-26T23:55:25.068Z,70.18
2022-08-26T23:57:52.790Z,69.77
